sensor_id;sensor_type;location;lat;lon;timestamp;P1;durP1;ratioP1;P2;durP2;ratioP2
61897;SDS011;47850;50.274;18.908;2023-03-14T00:01:10;23.40;;;5.40;;
61897;SDS011;47850;50.274;18.908;2023-03-14T00:03:43;10.40;;;5.10;;
61897;SDS011;47850;50.274;18.908;2023-03-14T00:06:11;13.70;;;5.40;;
61897;SDS011;47850;50.274;18.908;2023-03-14T00:08:40;12.20;;;5.50;;
61897;SDS011;47850;50.274;18.908;2023-03-14T00:11:10;9.00;;;4.80;;
61897;SDS011;47850;50.274;18.908;2023-03-14T00:13:40;9.10;;;4.30;;
61897;SDS011;47850;50.274;18.908;2023-03-14T00:16:10;9.30;;;5.10;;
61897;SDS011;47850;50.274;18.908;2023-03-14T00:18:39;9.60;;;5.40;;
61897;SDS011;47850;50.274;18.908;2023-03-14T00:21:08;10.40;;;5.20;;
61897;SDS011;47850;50.274;18.908;2023-03-14T00:23:37;8.10;;;5.00;;
61897;SDS011;47850;50.274;18.908;2023-03-14T00:26:16;9.00;;;4.30;;
61897;SDS011;47850;50.274;18.908;2023-03-14T00:28:46;8.20;;;4.50;;
61897;SDS011;47850;50.274;18.908;2023-03-14T00:31:18;7.30;;;3.70;;
61897;SDS011;47850;50.274;18.908;2023-03-14T00:33:46;7.90;;;3.70;;
61897;SDS011;47850;50.274;18.908;2023-03-14T00:36:17;5.80;;;3.80;;
61897;SDS011;47850;50.274;18.908;2023-03-14T00:38:47;6.90;;;3.50;;
61897;SDS011;47850;50.274;18.908;2023-03-14T00:41:19;7.00;;;2.90;;
61897;SDS011;47850;50.274;18.908;2023-03-14T00:43:50;7.60;;;3.20;;
61897;SDS011;47850;50.274;18.908;2023-03-14T00:46:18;9.30;;;3.60;;
61897;SDS011;47850;50.274;18.908;2023-03-14T00:48:46;5.90;;;2.90;;
61897;SDS011;47850;50.274;18.908;2023-03-14T00:51:14;6.10;;;3.20;;
61897;SDS011;47850;50.274;18.908;2023-03-14T00:53:43;7.40;;;3.40;;
61897;SDS011;47850;50.274;18.908;2023-03-14T00:56:11;6.20;;;3.40;;
61897;SDS011;47850;50.274;18.908;2023-03-14T00:58:40;8.90;;;4.40;;
61897;SDS011;47850;50.274;18.908;2023-03-14T01:01:08;11.30;;;4.10;;
61897;SDS011;47850;50.274;18.908;2023-03-14T01:03:39;14.10;;;5.20;;
61897;SDS011;47850;50.274;18.908;2023-03-14T01:06:15;11.30;;;4.80;;
61897;SDS011;47850;50.274;18.908;2023-03-14T01:08:44;10.20;;;4.40;;
61897;SDS011;47850;50.274;18.908;2023-03-14T01:11:15;10.00;;;3.80;;
61897;SDS011;47850;50.274;18.908;2023-03-14T01:13:54;9.50;;;3.80;;
61897;SDS011;47850;50.274;18.908;2023-03-14T01:16:23;7.50;;;3.40;;
61897;SDS011;47850;50.274;18.908;2023-03-14T01:18:52;10.50;;;3.90;;
61897;SDS011;47850;50.274;18.908;2023-03-14T01:21:22;7.70;;;3.60;;
61897;SDS011;47850;50.274;18.908;2023-03-14T01:23:52;5.90;;;2.90;;
61897;SDS011;47850;50.274;18.908;2023-03-14T01:26:23;8.90;;;3.60;;
61897;SDS011;47850;50.274;18.908;2023-03-14T01:28:53;5.70;;;3.30;;
61897;SDS011;47850;50.274;18.908;2023-03-14T01:31:22;10.20;;;4.80;;
61897;SDS011;47850;50.274;18.908;2023-03-14T01:33:51;6.90;;;3.40;;
61897;SDS011;47850;50.274;18.908;2023-03-14T01:36:19;4.30;;;2.60;;
61897;SDS011;47850;50.274;18.908;2023-03-14T01:38:47;4.30;;;2.40;;
61897;SDS011;47850;50.274;18.908;2023-03-14T01:41:16;7.70;;;2.60;;
61897;SDS011;47850;50.274;18.908;2023-03-14T01:43:49;5.00;;;2.30;;
61897;SDS011;47850;50.274;18.908;2023-03-14T01:46:52;5.10;;;2.60;;
61897;SDS011;47850;50.274;18.908;2023-03-14T01:52:25;5.30;;;3.00;;
61897;SDS011;47850;50.274;18.908;2023-03-14T01:59:46;4.50;;;2.40;;
61897;SDS011;47850;50.274;18.908;2023-03-14T02:02:19;6.50;;;3.10;;
61897;SDS011;47850;50.274;18.908;2023-03-14T02:04:48;6.60;;;2.80;;
61897;SDS011;47850;50.274;18.908;2023-03-14T02:07:24;5.40;;;2.60;;
61897;SDS011;47850;50.274;18.908;2023-03-14T02:09:58;8.30;;;2.60;;
61897;SDS011;47850;50.274;18.908;2023-03-14T02:14:56;5.70;;;2.60;;
61897;SDS011;47850;50.274;18.908;2023-03-14T02:17:24;5.30;;;2.30;;
61897;SDS011;47850;50.274;18.908;2023-03-14T02:20:07;6.30;;;2.60;;
61897;SDS011;47850;50.274;18.908;2023-03-14T02:22:44;6.00;;;2.80;;
61897;SDS011;47850;50.274;18.908;2023-03-14T02:25:18;10.30;;;3.70;;
61897;SDS011;47850;50.274;18.908;2023-03-14T02:28:07;8.30;;;2.80;;
61897;SDS011;47850;50.274;18.908;2023-03-14T02:30:35;7.50;;;2.80;;
61897;SDS011;47850;50.274;18.908;2023-03-14T02:33:05;5.50;;;2.40;;
61897;SDS011;47850;50.274;18.908;2023-03-14T02:35:45;5.20;;;2.80;;
61897;SDS011;47850;50.274;18.908;2023-03-14T02:38:19;5.90;;;2.70;;
61897;SDS011;47850;50.274;18.908;2023-03-14T02:40:52;6.00;;;3.10;;
61897;SDS011;47850;50.274;18.908;2023-03-14T02:43:19;5.60;;;2.80;;
61897;SDS011;47850;50.274;18.908;2023-03-14T02:45:48;5.80;;;3.00;;
61897;SDS011;47850;50.274;18.908;2023-03-14T02:48:18;7.10;;;2.70;;
61897;SDS011;47850;50.274;18.908;2023-03-14T02:50:50;5.40;;;2.70;;
61897;SDS011;47850;50.274;18.908;2023-03-14T02:53:22;4.80;;;2.50;;
61897;SDS011;47850;50.274;18.908;2023-03-14T02:55:53;5.30;;;2.80;;
61897;SDS011;47850;50.274;18.908;2023-03-14T02:58:20;6.50;;;2.70;;
61897;SDS011;47850;50.274;18.908;2023-03-14T03:00:49;5.10;;;2.70;;
61897;SDS011;47850;50.274;18.908;2023-03-14T03:03:17;7.00;;;2.70;;
61897;SDS011;47850;50.274;18.908;2023-03-14T03:05:48;5.70;;;2.50;;
61897;SDS011;47850;50.274;18.908;2023-03-14T03:08:21;4.70;;;2.50;;
61897;SDS011;47850;50.274;18.908;2023-03-14T03:10:50;7.00;;;2.70;;
61897;SDS011;47850;50.274;18.908;2023-03-14T03:13:18;8.70;;;3.00;;
61897;SDS011;47850;50.274;18.908;2023-03-14T03:15:47;4.50;;;2.30;;
61897;SDS011;47850;50.274;18.908;2023-03-14T03:18:15;7.00;;;2.70;;
61897;SDS011;47850;50.274;18.908;2023-03-14T03:20:43;5.10;;;2.70;;
61897;SDS011;47850;50.274;18.908;2023-03-14T03:23:11;6.90;;;2.80;;
61897;SDS011;47850;50.274;18.908;2023-03-14T03:25:39;6.20;;;2.70;;
61897;SDS011;47850;50.274;18.908;2023-03-14T03:28:07;4.00;;;2.10;;
61897;SDS011;47850;50.274;18.908;2023-03-14T03:30:38;5.70;;;2.70;;
61897;SDS011;47850;50.274;18.908;2023-03-14T03:33:07;4.10;;;2.30;;
61897;SDS011;47850;50.274;18.908;2023-03-14T03:35:41;5.80;;;2.40;;
61897;SDS011;47850;50.274;18.908;2023-03-14T03:38:11;5.60;;;2.30;;
61897;SDS011;47850;50.274;18.908;2023-03-14T03:40:39;4.70;;;2.60;;
61897;SDS011;47850;50.274;18.908;2023-03-14T03:43:07;5.70;;;2.00;;
61897;SDS011;47850;50.274;18.908;2023-03-14T03:45:35;12.30;;;3.10;;
61897;SDS011;47850;50.274;18.908;2023-03-14T03:48:03;8.40;;;3.30;;
61897;SDS011;47850;50.274;18.908;2023-03-14T03:50:31;9.90;;;4.20;;
61897;SDS011;47850;50.274;18.908;2023-03-14T03:52:58;16.70;;;5.30;;
61897;SDS011;47850;50.274;18.908;2023-03-14T03:55:26;27.60;;;7.90;;
61897;SDS011;47850;50.274;18.908;2023-03-14T03:57:55;13.50;;;4.40;;
61897;SDS011;47850;50.274;18.908;2023-03-14T04:00:23;10.00;;;4.00;;
61897;SDS011;47850;50.274;18.908;2023-03-14T04:02:51;8.20;;;3.40;;
61897;SDS011;47850;50.274;18.908;2023-03-14T04:05:18;7.10;;;3.30;;
61897;SDS011;47850;50.274;18.908;2023-03-14T04:07:46;6.50;;;3.50;;
61897;SDS011;47850;50.274;18.908;2023-03-14T04:10:14;10.20;;;3.90;;
61897;SDS011;47850;50.274;18.908;2023-03-14T04:12:42;7.90;;;4.10;;
61897;SDS011;47850;50.274;18.908;2023-03-14T04:15:10;7.30;;;4.10;;
61897;SDS011;47850;50.274;18.908;2023-03-14T04:17:38;12.00;;;5.40;;
61897;SDS011;47850;50.274;18.908;2023-03-14T04:20:06;11.10;;;4.70;;
61897;SDS011;47850;50.274;18.908;2023-03-14T04:22:38;9.90;;;5.00;;
61897;SDS011;47850;50.274;18.908;2023-03-14T04:25:06;10.60;;;4.80;;
61897;SDS011;47850;50.274;18.908;2023-03-14T04:27:34;13.80;;;6.40;;
61897;SDS011;47850;50.274;18.908;2023-03-14T04:30:02;19.40;;;8.70;;
61897;SDS011;47850;50.274;18.908;2023-03-14T04:32:30;17.30;;;6.80;;
61897;SDS011;47850;50.274;18.908;2023-03-14T04:34:58;17.90;;;7.80;;
61897;SDS011;47850;50.274;18.908;2023-03-14T04:37:26;17.70;;;7.70;;
61897;SDS011;47850;50.274;18.908;2023-03-14T04:39:53;16.50;;;7.20;;
61897;SDS011;47850;50.274;18.908;2023-03-14T04:42:21;15.70;;;6.50;;
61897;SDS011;47850;50.274;18.908;2023-03-14T04:44:49;12.50;;;4.90;;
61897;SDS011;47850;50.274;18.908;2023-03-14T04:47:17;7.60;;;4.00;;
61897;SDS011;47850;50.274;18.908;2023-03-14T04:49:45;9.20;;;4.00;;
61897;SDS011;47850;50.274;18.908;2023-03-14T04:52:13;11.10;;;5.00;;
61897;SDS011;47850;50.274;18.908;2023-03-14T04:54:40;23.90;;;9.00;;
61897;SDS011;47850;50.274;18.908;2023-03-14T04:57:08;49.90;;;23.80;;
61897;SDS011;47850;50.274;18.908;2023-03-14T04:59:36;17.90;;;8.70;;
61897;SDS011;47850;50.274;18.908;2023-03-14T05:02:04;13.30;;;5.90;;
61897;SDS011;47850;50.274;18.908;2023-03-14T05:04:31;10.70;;;5.10;;
61897;SDS011;47850;50.274;18.908;2023-03-14T05:07:01;12.40;;;4.80;;
61897;SDS011;47850;50.274;18.908;2023-03-14T05:09:28;11.60;;;4.90;;
61897;SDS011;47850;50.274;18.908;2023-03-14T05:11:56;10.10;;;4.60;;
61897;SDS011;47850;50.274;18.908;2023-03-14T05:14:24;8.20;;;3.80;;
61897;SDS011;47850;50.274;18.908;2023-03-14T05:16:52;11.10;;;3.90;;
61897;SDS011;47850;50.274;18.908;2023-03-14T05:19:20;7.20;;;2.90;;
61897;SDS011;47850;50.274;18.908;2023-03-14T05:21:47;8.10;;;3.30;;
61897;SDS011;47850;50.274;18.908;2023-03-14T05:24:15;8.10;;;3.40;;
61897;SDS011;47850;50.274;18.908;2023-03-14T05:26:43;6.80;;;3.70;;
61897;SDS011;47850;50.274;18.908;2023-03-14T05:29:11;9.80;;;3.40;;
61897;SDS011;47850;50.274;18.908;2023-03-14T05:31:39;8.90;;;3.70;;
61897;SDS011;47850;50.274;18.908;2023-03-14T05:34:06;7.80;;;3.40;;
61897;SDS011;47850;50.274;18.908;2023-03-14T05:36:34;6.50;;;3.00;;
61897;SDS011;47850;50.274;18.908;2023-03-14T05:39:02;5.30;;;2.60;;
61897;SDS011;47850;50.274;18.908;2023-03-14T05:41:30;8.30;;;3.50;;
61897;SDS011;47850;50.274;18.908;2023-03-14T05:43:57;4.50;;;2.60;;
61897;SDS011;47850;50.274;18.908;2023-03-14T05:46:25;4.90;;;2.00;;
61897;SDS011;47850;50.274;18.908;2023-03-14T05:48:53;5.90;;;2.60;;
61897;SDS011;47850;50.274;18.908;2023-03-14T05:51:21;5.10;;;2.80;;
61897;SDS011;47850;50.274;18.908;2023-03-14T05:53:49;7.10;;;2.60;;
61897;SDS011;47850;50.274;18.908;2023-03-14T05:56:16;7.00;;;2.90;;
61897;SDS011;47850;50.274;18.908;2023-03-14T05:58:44;5.60;;;2.80;;
61897;SDS011;47850;50.274;18.908;2023-03-14T06:01:12;5.50;;;2.90;;
61897;SDS011;47850;50.274;18.908;2023-03-14T06:03:40;9.90;;;3.30;;
61897;SDS011;47850;50.274;18.908;2023-03-14T06:06:08;8.90;;;4.00;;
61897;SDS011;47850;50.274;18.908;2023-03-14T06:08:36;12.70;;;5.10;;
61897;SDS011;47850;50.274;18.908;2023-03-14T06:11:03;14.70;;;5.30;;
61897;SDS011;47850;50.274;18.908;2023-03-14T06:13:31;9.20;;;3.60;;
61897;SDS011;47850;50.274;18.908;2023-03-14T06:15:59;7.10;;;3.50;;
61897;SDS011;47850;50.274;18.908;2023-03-14T06:18:27;9.30;;;4.40;;
61897;SDS011;47850;50.274;18.908;2023-03-14T06:20:55;11.20;;;4.40;;
61897;SDS011;47850;50.274;18.908;2023-03-14T06:23:23;9.80;;;4.30;;
61897;SDS011;47850;50.274;18.908;2023-03-14T06:25:52;12.00;;;4.90;;
61897;SDS011;47850;50.274;18.908;2023-03-14T06:28:20;9.50;;;3.90;;
61897;SDS011;47850;50.274;18.908;2023-03-14T06:30:48;10.20;;;4.90;;
61897;SDS011;47850;50.274;18.908;2023-03-14T06:33:15;9.10;;;4.40;;
61897;SDS011;47850;50.274;18.908;2023-03-14T06:35:43;8.80;;;3.80;;
61897;SDS011;47850;50.274;18.908;2023-03-14T06:38:11;8.20;;;4.20;;
61897;SDS011;47850;50.274;18.908;2023-03-14T06:40:39;9.80;;;4.10;;
61897;SDS011;47850;50.274;18.908;2023-03-14T06:43:07;7.70;;;3.40;;
61897;SDS011;47850;50.274;18.908;2023-03-14T06:45:35;6.40;;;2.90;;
61897;SDS011;47850;50.274;18.908;2023-03-14T06:48:03;10.90;;;3.30;;
61897;SDS011;47850;50.274;18.908;2023-03-14T06:50:30;7.50;;;3.10;;
61897;SDS011;47850;50.274;18.908;2023-03-14T06:52:58;8.30;;;3.30;;
61897;SDS011;47850;50.274;18.908;2023-03-14T06:55:26;6.30;;;3.30;;
61897;SDS011;47850;50.274;18.908;2023-03-14T06:57:54;7.00;;;3.10;;
61897;SDS011;47850;50.274;18.908;2023-03-14T07:00:22;7.90;;;3.50;;
61897;SDS011;47850;50.274;18.908;2023-03-14T07:02:50;6.50;;;2.90;;
61897;SDS011;47850;50.274;18.908;2023-03-14T07:05:18;11.20;;;3.80;;
61897;SDS011;47850;50.274;18.908;2023-03-14T07:07:45;10.30;;;3.60;;
61897;SDS011;47850;50.274;18.908;2023-03-14T07:10:13;8.80;;;4.10;;
61897;SDS011;47850;50.274;18.908;2023-03-14T07:12:41;6.30;;;2.80;;
61897;SDS011;47850;50.274;18.908;2023-03-14T07:15:09;7.20;;;3.90;;
61897;SDS011;47850;50.274;18.908;2023-03-14T07:17:37;5.70;;;3.40;;
61897;SDS011;47850;50.274;18.908;2023-03-14T07:20:05;7.40;;;4.20;;
61897;SDS011;47850;50.274;18.908;2023-03-14T07:22:34;6.90;;;3.30;;
61897;SDS011;47850;50.274;18.908;2023-03-14T07:25:02;10.40;;;4.40;;
61897;SDS011;47850;50.274;18.908;2023-03-14T07:27:30;9.80;;;3.70;;
61897;SDS011;47850;50.274;18.908;2023-03-14T07:29:57;7.20;;;2.80;;
61897;SDS011;47850;50.274;18.908;2023-03-14T07:32:25;5.70;;;2.80;;
61897;SDS011;47850;50.274;18.908;2023-03-14T07:34:53;6.10;;;3.20;;
61897;SDS011;47850;50.274;18.908;2023-03-14T07:37:21;7.20;;;3.20;;
61897;SDS011;47850;50.274;18.908;2023-03-14T07:39:48;4.90;;;2.60;;
61897;SDS011;47850;50.274;18.908;2023-03-14T07:42:16;5.60;;;2.60;;
61897;SDS011;47850;50.274;18.908;2023-03-14T07:44:44;4.20;;;2.30;;
61897;SDS011;47850;50.274;18.908;2023-03-14T07:47:12;9.40;;;2.80;;
61897;SDS011;47850;50.274;18.908;2023-03-14T07:49:40;5.90;;;3.10;;
61897;SDS011;47850;50.274;18.908;2023-03-14T07:52:07;6.40;;;3.10;;
61897;SDS011;47850;50.274;18.908;2023-03-14T07:54:35;7.90;;;3.50;;
61897;SDS011;47850;50.274;18.908;2023-03-14T07:57:03;7.10;;;3.10;;
61897;SDS011;47850;50.274;18.908;2023-03-14T07:59:31;6.50;;;2.80;;
61897;SDS011;47850;50.274;18.908;2023-03-14T08:01:59;9.90;;;3.90;;
61897;SDS011;47850;50.274;18.908;2023-03-14T08:04:27;7.40;;;3.50;;
61897;SDS011;47850;50.274;18.908;2023-03-14T08:06:54;7.30;;;2.90;;
61897;SDS011;47850;50.274;18.908;2023-03-14T08:09:22;7.90;;;3.60;;
61897;SDS011;47850;50.274;18.908;2023-03-14T08:11:50;12.10;;;3.90;;
61897;SDS011;47850;50.274;18.908;2023-03-14T08:14:18;9.00;;;4.30;;
61897;SDS011;47850;50.274;18.908;2023-03-14T08:16:45;6.80;;;3.60;;
61897;SDS011;47850;50.274;18.908;2023-03-14T08:19:13;6.80;;;2.80;;
61897;SDS011;47850;50.274;18.908;2023-03-14T08:21:41;6.60;;;3.30;;
61897;SDS011;47850;50.274;18.908;2023-03-14T08:24:09;8.60;;;3.60;;
61897;SDS011;47850;50.274;18.908;2023-03-14T08:26:37;8.80;;;3.10;;
61897;SDS011;47850;50.274;18.908;2023-03-14T08:29:04;5.60;;;3.30;;
61897;SDS011;47850;50.274;18.908;2023-03-14T08:31:32;9.40;;;3.40;;
61897;SDS011;47850;50.274;18.908;2023-03-14T08:34:00;5.10;;;2.40;;
61897;SDS011;47850;50.274;18.908;2023-03-14T08:36:29;6.90;;;2.50;;
61897;SDS011;47850;50.274;18.908;2023-03-14T08:38:58;9.00;;;3.70;;
61897;SDS011;47850;50.274;18.908;2023-03-14T08:41:26;6.40;;;3.40;;
61897;SDS011;47850;50.274;18.908;2023-03-14T08:43:53;5.10;;;2.60;;
61897;SDS011;47850;50.274;18.908;2023-03-14T08:46:21;10.50;;;3.70;;
61897;SDS011;47850;50.274;18.908;2023-03-14T08:48:49;5.80;;;3.20;;
61897;SDS011;47850;50.274;18.908;2023-03-14T08:51:17;5.80;;;3.20;;
61897;SDS011;47850;50.274;18.908;2023-03-14T08:53:45;6.60;;;3.30;;
61897;SDS011;47850;50.274;18.908;2023-03-14T08:56:12;5.00;;;2.60;;
61897;SDS011;47850;50.274;18.908;2023-03-14T08:58:40;5.30;;;2.80;;
61897;SDS011;47850;50.274;18.908;2023-03-14T09:01:10;8.70;;;3.40;;
61897;SDS011;47850;50.274;18.908;2023-03-14T09:03:38;7.70;;;3.50;;
61897;SDS011;47850;50.274;18.908;2023-03-14T09:06:07;8.00;;;3.10;;
61897;SDS011;47850;50.274;18.908;2023-03-14T09:08:37;10.40;;;4.00;;
61897;SDS011;47850;50.274;18.908;2023-03-14T09:11:08;8.80;;;3.00;;
61897;SDS011;47850;50.274;18.908;2023-03-14T09:13:36;7.10;;;3.40;;
61897;SDS011;47850;50.274;18.908;2023-03-14T09:16:06;5.40;;;3.40;;
61897;SDS011;47850;50.274;18.908;2023-03-14T09:18:35;6.30;;;3.20;;
61897;SDS011;47850;50.274;18.908;2023-03-14T09:21:04;5.60;;;2.60;;
61897;SDS011;47850;50.274;18.908;2023-03-14T09:23:32;6.10;;;2.90;;
61897;SDS011;47850;50.274;18.908;2023-03-14T09:26:00;9.40;;;3.20;;
61897;SDS011;47850;50.274;18.908;2023-03-14T09:28:28;5.70;;;2.60;;
61897;SDS011;47850;50.274;18.908;2023-03-14T09:31:05;7.90;;;2.90;;
61897;SDS011;47850;50.274;18.908;2023-03-14T09:33:34;9.60;;;3.40;;
61897;SDS011;47850;50.274;18.908;2023-03-14T09:36:02;9.00;;;2.90;;
61897;SDS011;47850;50.274;18.908;2023-03-14T09:38:30;5.80;;;2.70;;
61897;SDS011;47850;50.274;18.908;2023-03-14T09:41:01;8.90;;;3.00;;
61897;SDS011;47850;50.274;18.908;2023-03-14T09:43:31;6.30;;;2.90;;
61897;SDS011;47850;50.274;18.908;2023-03-14T09:46:02;6.10;;;3.10;;
61897;SDS011;47850;50.274;18.908;2023-03-14T09:48:31;5.60;;;3.10;;
61897;SDS011;47850;50.274;18.908;2023-03-14T09:51:01;16.50;;;3.40;;
61897;SDS011;47850;50.274;18.908;2023-03-14T09:53:41;5.10;;;2.70;;
61897;SDS011;47850;50.274;18.908;2023-03-14T09:56:12;8.10;;;2.90;;
61897;SDS011;47850;50.274;18.908;2023-03-14T09:58:44;4.50;;;2.20;;
61897;SDS011;47850;50.274;18.908;2023-03-14T10:01:16;6.90;;;2.90;;
61897;SDS011;47850;50.274;18.908;2023-03-14T10:03:48;5.60;;;2.40;;
61897;SDS011;47850;50.274;18.908;2023-03-14T10:06:16;7.90;;;3.00;;
61897;SDS011;47850;50.274;18.908;2023-03-14T10:08:44;4.70;;;2.60;;
61897;SDS011;47850;50.274;18.908;2023-03-14T10:11:16;7.50;;;3.10;;
61897;SDS011;47850;50.274;18.908;2023-03-14T10:16:16;6.70;;;3.10;;
61897;SDS011;47850;50.274;18.908;2023-03-14T10:18:44;8.10;;;2.90;;
61897;SDS011;47850;50.274;18.908;2023-03-14T10:21:20;11.20;;;3.50;;
61897;SDS011;47850;50.274;18.908;2023-03-14T10:23:53;11.00;;;3.30;;
61897;SDS011;47850;50.274;18.908;2023-03-14T10:26:24;7.20;;;3.00;;
61897;SDS011;47850;50.274;18.908;2023-03-14T10:29:02;11.50;;;4.00;;
61897;SDS011;47850;50.274;18.908;2023-03-14T10:31:47;8.80;;;3.40;;
61897;SDS011;47850;50.274;18.908;2023-03-14T10:34:22;8.30;;;3.00;;
61897;SDS011;47850;50.274;18.908;2023-03-14T10:36:59;6.30;;;2.40;;
61897;SDS011;47850;50.274;18.908;2023-03-14T10:39:46;7.50;;;3.10;;
61897;SDS011;47850;50.274;18.908;2023-03-14T10:42:30;7.20;;;3.70;;
61897;SDS011;47850;50.274;18.908;2023-03-14T10:45:03;7.30;;;3.20;;
61897;SDS011;47850;50.274;18.908;2023-03-14T10:47:35;5.70;;;3.40;;
61897;SDS011;47850;50.274;18.908;2023-03-14T10:52:55;7.80;;;3.00;;
61897;SDS011;47850;50.274;18.908;2023-03-14T10:55:24;7.50;;;3.10;;
61897;SDS011;47850;50.274;18.908;2023-03-14T10:57:55;14.10;;;3.70;;
61897;SDS011;47850;50.274;18.908;2023-03-14T11:00:23;7.90;;;3.30;;
61897;SDS011;47850;50.274;18.908;2023-03-14T11:08:11;5.90;;;2.50;;
61897;SDS011;47850;50.274;18.908;2023-03-14T11:10:48;8.50;;;2.50;;
61897;SDS011;47850;50.274;18.908;2023-03-14T11:13:43;4.00;;;2.60;;
61897;SDS011;47850;50.274;18.908;2023-03-14T11:16:34;8.10;;;3.50;;
61897;SDS011;47850;50.274;18.908;2023-03-14T11:19:31;7.50;;;3.20;;
61897;SDS011;47850;50.274;18.908;2023-03-14T11:25:12;7.80;;;3.70;;
61897;SDS011;47850;50.274;18.908;2023-03-14T11:27:51;7.50;;;3.80;;
61897;SDS011;47850;50.274;18.908;2023-03-14T11:30:35;10.70;;;4.30;;
61897;SDS011;47850;50.274;18.908;2023-03-14T11:33:18;9.50;;;3.60;;
61897;SDS011;47850;50.274;18.908;2023-03-14T11:35:59;7.60;;;3.00;;
61897;SDS011;47850;50.274;18.908;2023-03-14T11:38:46;8.50;;;3.20;;
61897;SDS011;47850;50.274;18.908;2023-03-14T11:41:40;7.50;;;3.30;;
61897;SDS011;47850;50.274;18.908;2023-03-14T11:49:35;9.40;;;4.20;;
61897;SDS011;47850;50.274;18.908;2023-03-14T11:52:11;9.90;;;4.30;;
61897;SDS011;47850;50.274;18.908;2023-03-14T11:57:58;11.10;;;5.00;;
61897;SDS011;47850;50.274;18.908;2023-03-14T12:00:31;5.20;;;2.70;;
61897;SDS011;47850;50.274;18.908;2023-03-14T12:05:39;16.00;;;7.10;;
61897;SDS011;47850;50.274;18.908;2023-03-14T12:08:39;11.30;;;5.50;;
61897;SDS011;47850;50.274;18.908;2023-03-14T12:14:30;8.90;;;4.20;;
61897;SDS011;47850;50.274;18.908;2023-03-14T12:17:05;8.70;;;4.80;;
61897;SDS011;47850;50.274;18.908;2023-03-14T12:19:35;15.40;;;5.70;;
61897;SDS011;47850;50.274;18.908;2023-03-14T12:24:36;8.90;;;5.00;;
61897;SDS011;47850;50.274;18.908;2023-03-14T12:27:06;10.00;;;4.10;;
61897;SDS011;47850;50.274;18.908;2023-03-14T12:32:24;12.90;;;5.60;;
61897;SDS011;47850;50.274;18.908;2023-03-14T12:34:52;15.70;;;6.60;;
61897;SDS011;47850;50.274;18.908;2023-03-14T12:37:33;12.80;;;6.40;;
61897;SDS011;47850;50.274;18.908;2023-03-14T12:40:13;12.70;;;6.00;;
61897;SDS011;47850;50.274;18.908;2023-03-14T12:42:54;11.90;;;5.90;;
61897;SDS011;47850;50.274;18.908;2023-03-14T12:45:35;13.80;;;6.00;;
61897;SDS011;47850;50.274;18.908;2023-03-14T12:48:21;13.40;;;6.30;;
61897;SDS011;47850;50.274;18.908;2023-03-14T12:50:54;12.70;;;5.90;;
61897;SDS011;47850;50.274;18.908;2023-03-14T12:59:20;16.70;;;6.10;;
61897;SDS011;47850;50.274;18.908;2023-03-14T13:10:24;8.60;;;4.40;;
61897;SDS011;47850;50.274;18.908;2023-03-14T13:13:02;9.90;;;4.70;;
61897;SDS011;47850;50.274;18.908;2023-03-14T13:15:39;10.40;;;5.10;;
61897;SDS011;47850;50.274;18.908;2023-03-14T13:18:11;11.40;;;4.80;;
61897;SDS011;47850;50.274;18.908;2023-03-14T13:21:01;9.10;;;4.40;;
61897;SDS011;47850;50.274;18.908;2023-03-14T13:23:31;9.70;;;4.80;;
61897;SDS011;47850;50.274;18.908;2023-03-14T13:26:00;8.30;;;4.30;;
61897;SDS011;47850;50.274;18.908;2023-03-14T13:28:29;9.20;;;4.40;;
61897;SDS011;47850;50.274;18.908;2023-03-14T13:30:59;7.90;;;4.10;;
61897;SDS011;47850;50.274;18.908;2023-03-14T13:33:29;9.50;;;4.40;;
61897;SDS011;47850;50.274;18.908;2023-03-14T13:35:57;8.80;;;3.80;;
61897;SDS011;47850;50.274;18.908;2023-03-14T13:38:30;9.60;;;4.90;;
61897;SDS011;47850;50.274;18.908;2023-03-14T13:41:03;8.10;;;3.80;;
61897;SDS011;47850;50.274;18.908;2023-03-14T13:43:34;8.90;;;3.50;;
61897;SDS011;47850;50.274;18.908;2023-03-14T13:48:54;6.60;;;3.90;;
61897;SDS011;47850;50.274;18.908;2023-03-14T13:51:25;9.40;;;4.60;;
61897;SDS011;47850;50.274;18.908;2023-03-14T13:53:58;8.80;;;4.50;;
61897;SDS011;47850;50.274;18.908;2023-03-14T13:56:28;6.40;;;3.60;;
61897;SDS011;47850;50.274;18.908;2023-03-14T13:58:57;10.70;;;4.50;;
61897;SDS011;47850;50.274;18.908;2023-03-14T14:01:32;16.10;;;6.60;;
61897;SDS011;47850;50.274;18.908;2023-03-14T14:04:07;9.70;;;4.40;;
61897;SDS011;47850;50.274;18.908;2023-03-14T14:06:46;7.60;;;3.90;;
61897;SDS011;47850;50.274;18.908;2023-03-14T14:09:29;7.60;;;3.50;;
61897;SDS011;47850;50.274;18.908;2023-03-14T14:12:03;13.90;;;5.80;;
61897;SDS011;47850;50.274;18.908;2023-03-14T14:14:40;7.10;;;3.70;;
61897;SDS011;47850;50.274;18.908;2023-03-14T14:17:11;7.50;;;4.10;;
61897;SDS011;47850;50.274;18.908;2023-03-14T14:19:42;9.40;;;4.80;;
61897;SDS011;47850;50.274;18.908;2023-03-14T14:22:12;8.00;;;4.30;;
61897;SDS011;47850;50.274;18.908;2023-03-14T14:24:40;9.30;;;4.70;;
61897;SDS011;47850;50.274;18.908;2023-03-14T14:27:13;12.30;;;5.80;;
61897;SDS011;47850;50.274;18.908;2023-03-14T14:29:44;16.60;;;6.50;;
61897;SDS011;47850;50.274;18.908;2023-03-14T14:32:24;10.20;;;5.10;;
61897;SDS011;47850;50.274;18.908;2023-03-14T14:35:00;7.10;;;3.80;;
61897;SDS011;47850;50.274;18.908;2023-03-14T14:37:31;6.80;;;3.40;;
61897;SDS011;47850;50.274;18.908;2023-03-14T14:40:08;9.90;;;4.10;;
61897;SDS011;47850;50.274;18.908;2023-03-14T14:42:41;7.10;;;4.20;;
61897;SDS011;47850;50.274;18.908;2023-03-14T14:45:19;8.30;;;4.80;;
61897;SDS011;47850;50.274;18.908;2023-03-14T14:47:53;12.00;;;5.20;;
61897;SDS011;47850;50.274;18.908;2023-03-14T14:50:34;9.30;;;4.40;;
61897;SDS011;47850;50.274;18.908;2023-03-14T14:58:49;8.40;;;4.30;;
61897;SDS011;47850;50.274;18.908;2023-03-14T15:01:18;10.00;;;4.60;;
61897;SDS011;47850;50.274;18.908;2023-03-14T15:03:50;8.40;;;5.10;;
61897;SDS011;47850;50.274;18.908;2023-03-14T15:06:20;10.80;;;5.50;;
61897;SDS011;47850;50.274;18.908;2023-03-14T15:08:49;9.20;;;5.00;;
61897;SDS011;47850;50.274;18.908;2023-03-14T15:11:17;10.00;;;4.60;;
61897;SDS011;47850;50.274;18.908;2023-03-14T15:13:51;10.90;;;5.50;;
61897;SDS011;47850;50.274;18.908;2023-03-14T15:16:20;9.90;;;5.20;;
61897;SDS011;47850;50.274;18.908;2023-03-14T15:18:54;13.00;;;6.10;;
61897;SDS011;47850;50.274;18.908;2023-03-14T15:21:24;12.80;;;6.00;;
61897;SDS011;47850;50.274;18.908;2023-03-14T15:23:54;10.50;;;5.00;;
61897;SDS011;47850;50.274;18.908;2023-03-14T15:26:23;12.40;;;5.70;;
61897;SDS011;47850;50.274;18.908;2023-03-14T15:28:53;8.90;;;5.30;;
61897;SDS011;47850;50.274;18.908;2023-03-14T15:31:21;10.60;;;5.20;;
61897;SDS011;47850;50.274;18.908;2023-03-14T15:33:49;20.40;;;8.80;;
61897;SDS011;47850;50.274;18.908;2023-03-14T15:36:22;12.70;;;6.00;;
61897;SDS011;47850;50.274;18.908;2023-03-14T15:38:55;10.70;;;5.00;;
61897;SDS011;47850;50.274;18.908;2023-03-14T15:41:23;11.10;;;5.70;;
61897;SDS011;47850;50.274;18.908;2023-03-14T15:43:51;8.30;;;4.20;;
61897;SDS011;47850;50.274;18.908;2023-03-14T15:46:19;9.40;;;5.00;;
61897;SDS011;47850;50.274;18.908;2023-03-14T15:48:48;10.40;;;4.70;;
61897;SDS011;47850;50.274;18.908;2023-03-14T15:51:18;24.60;;;10.60;;
61897;SDS011;47850;50.274;18.908;2023-03-14T15:53:46;10.50;;;4.80;;
61897;SDS011;47850;50.274;18.908;2023-03-14T15:56:15;65.80;;;29.10;;
61897;SDS011;47850;50.274;18.908;2023-03-14T15:58:45;70.50;;;31.60;;